createdAt,value
2023-02-28T00:00:30.388Z,2.60
2023-02-28T00:03:36.137Z,2.60
2023-02-28T00:06:39.039Z,2.60
2023-02-28T00:09:43.204Z,2.60
2023-02-28T00:12:46.066Z,2.60
2023-02-28T00:15:48.920Z,2.50
2023-02-28T00:18:52.450Z,2.60
2023-02-28T00:21:55.437Z,2.50
2023-02-28T00:24:59.649Z,2.50
2023-02-28T00:28:02.515Z,2.50
2023-02-28T00:31:06.186Z,2.50
2023-02-28T00:34:09.229Z,2.50
2023-02-28T00:37:13.959Z,2.40
2023-02-28T00:40:18.426Z,2.40
2023-02-28T00:43:21.268Z,2.40
2023-02-28T00:46:24.206Z,2.30
2023-02-28T00:49:27.655Z,2.30
2023-02-28T00:52:30.497Z,2.30
2023-02-28T00:55:34.675Z,2.30
2023-02-28T00:58:37.578Z,2.30
2023-02-28T01:01:40.762Z,2.30
2023-02-28T01:04:43.675Z,2.30
2023-02-28T01:07:46.551Z,2.30
2023-02-28T01:10:50.922Z,2.30
2023-02-28T01:13:53.954Z,2.20
2023-02-28T01:16:56.783Z,2.30
2023-02-28T01:19:59.614Z,2.20
2023-02-28T01:23:02.517Z,2.10
2023-02-28T01:26:12.289Z,2.10
2023-02-28T01:29:15.128Z,2.10
2023-02-28T01:32:18.024Z,2.10
2023-02-28T01:35:21.011Z,2.00
2023-02-28T01:38:23.833Z,2.10
2023-02-28T01:41:30.172Z,2.10
2023-02-28T01:45:00.021Z,2.00
2023-02-28T01:48:06.007Z,2.10
2023-02-28T01:51:14.934Z,2.10
2023-02-28T01:54:22.975Z,2.00
2023-02-28T01:57:34.276Z,2.00
2023-02-28T02:00:37.382Z,2.00
2023-02-28T02:03:40.338Z,1.90
2023-02-28T02:06:46.653Z,2.00
2023-02-28T02:09:49.649Z,1.90
2023-02-28T02:13:22.379Z,1.90
2023-02-28T02:16:37.270Z,1.90
2023-02-28T02:20:33.892Z,1.90
2023-02-28T02:24:17.927Z,1.90
2023-02-28T02:27:28.044Z,1.90
2023-02-28T02:31:06.137Z,1.90
2023-02-28T02:34:30.836Z,1.80
2023-02-28T02:37:40.628Z,1.80
2023-02-28T02:40:48.925Z,1.80
2023-02-28T02:43:55.294Z,1.80
2023-02-28T02:47:05.520Z,1.80
2023-02-28T02:50:14.634Z,1.80
2023-02-28T02:53:21.734Z,1.70
2023-02-28T02:56:29.211Z,1.70
2023-02-28T02:59:33.159Z,1.70
2023-02-28T03:02:38.353Z,1.70
2023-02-28T03:05:47.167Z,1.70
2023-02-28T03:08:50.086Z,1.70
2023-02-28T03:11:54.303Z,1.70
2023-02-28T03:15:08.236Z,1.70
2023-02-28T03:18:17.312Z,1.70
2023-02-28T03:21:30.226Z,1.70
2023-02-28T03:24:38.076Z,1.60
2023-02-28T03:27:46.392Z,1.60
2023-02-28T03:30:54.909Z,1.60
2023-02-28T03:34:03.642Z,1.60
2023-02-28T03:37:14.046Z,1.60
2023-02-28T03:40:21.615Z,1.60
2023-02-28T03:43:30.165Z,1.60
2023-02-28T03:46:36.671Z,1.60
2023-02-28T03:49:44.509Z,1.60
2023-02-28T03:52:52.365Z,1.60
2023-02-28T03:55:59.969Z,1.60
2023-02-28T03:59:07.863Z,1.60
2023-02-28T04:02:11.281Z,1.60
2023-02-28T04:05:14.120Z,1.60
2023-02-28T04:08:18.300Z,1.60
2023-02-28T04:11:25.024Z,1.60
2023-02-28T04:14:27.942Z,1.60
2023-02-28T04:17:30.780Z,1.70
2023-02-28T04:20:33.605Z,1.70
2023-02-28T04:23:37.884Z,1.70
2023-02-28T04:26:40.728Z,1.70
2023-02-28T04:29:45.442Z,1.70
2023-02-28T04:32:48.780Z,1.70
2023-02-28T04:36:00.617Z,1.70
2023-02-28T04:39:04.997Z,1.70
2023-02-28T04:42:07.900Z,1.70
2023-02-28T04:45:11.934Z,1.70
2023-02-28T04:48:14.787Z,1.80
2023-02-28T04:51:20.617Z,1.80
2023-02-28T04:54:25.485Z,1.80
2023-02-28T04:57:28.348Z,1.80
2023-02-28T05:00:31.241Z,1.80
2023-02-28T05:03:34.074Z,1.80
2023-02-28T05:06:36.919Z,1.80
2023-02-28T05:09:41.424Z,1.90
2023-02-28T05:12:44.275Z,1.80
2023-02-28T05:15:47.148Z,1.80
2023-02-28T05:18:50.251Z,1.90
2023-02-28T05:21:54.317Z,1.90
2023-02-28T05:24:58.510Z,1.90
2023-02-28T05:28:01.362Z,1.90
2023-02-28T05:31:04.192Z,1.90
2023-02-28T05:34:07.464Z,2.00
2023-02-28T05:37:14.246Z,1.90
2023-02-28T05:40:20.482Z,1.90
2023-02-28T05:43:23.310Z,1.90
2023-02-28T05:46:26.398Z,2.00
2023-02-28T05:49:29.310Z,1.90
2023-02-28T05:52:32.170Z,1.90
2023-02-28T05:55:38.261Z,2.00
2023-02-28T05:58:41.561Z,2.10
2023-02-28T06:01:49.111Z,2.10
2023-02-28T06:04:52.161Z,2.20
2023-02-28T06:07:55.053Z,2.10
2023-02-28T06:10:59.235Z,2.10
2023-02-28T06:14:03.322Z,2.00
2023-02-28T06:17:06.209Z,1.90
2023-02-28T06:20:10.356Z,1.90
2023-02-28T06:23:13.178Z,2.00
2023-02-28T06:26:17.630Z,2.00
2023-02-28T06:29:20.872Z,2.10
2023-02-28T06:32:23.795Z,2.10
2023-02-28T06:35:27.870Z,2.20
2023-02-28T06:38:30.838Z,2.20
2023-02-28T06:41:53.536Z,2.00
2023-02-28T06:44:57.648Z,2.00
2023-02-28T06:48:01.209Z,2.10
2023-02-28T06:51:05.591Z,2.10
2023-02-28T06:54:10.610Z,2.10
2023-02-28T06:57:15.054Z,2.10
2023-02-28T07:00:18.506Z,2.20
2023-02-28T07:03:21.674Z,2.20
2023-02-28T07:06:25.275Z,2.20
2023-02-28T07:09:30.888Z,2.10
2023-02-28T07:12:35.136Z,2.20
2023-02-28T07:15:41.150Z,2.20
2023-02-28T07:18:45.531Z,2.20
2023-02-28T07:21:48.369Z,2.30
2023-02-28T07:24:51.220Z,2.30
2023-02-28T07:27:55.799Z,2.20
2023-02-28T07:30:58.708Z,2.10
2023-02-28T07:34:01.560Z,2.20
2023-02-28T07:37:06.011Z,2.30
2023-02-28T07:40:12.241Z,2.30
2023-02-28T07:43:16.444Z,2.30
2023-02-28T07:46:21.277Z,2.40
2023-02-28T07:49:24.312Z,2.40
2023-02-28T07:52:27.685Z,2.40
2023-02-28T07:55:30.532Z,2.30
2023-02-28T07:58:34.750Z,2.30
2023-02-28T08:01:37.647Z,2.30
2023-02-28T08:04:40.568Z,2.30
2023-02-28T08:07:43.579Z,2.40
2023-02-28T08:10:46.479Z,2.40
2023-02-28T08:13:50.766Z,2.50
2023-02-28T08:16:53.622Z,2.50
2023-02-28T08:19:56.520Z,2.50
2023-02-28T08:22:59.373Z,2.60
2023-02-28T08:26:02.246Z,2.60
2023-02-28T08:29:06.528Z,2.60
2023-02-28T08:32:23.576Z,2.60
2023-02-28T08:35:31.685Z,2.60
2023-02-28T08:38:34.553Z,2.60
2023-02-28T08:41:37.697Z,2.60
2023-02-28T08:44:42.488Z,2.60
2023-02-28T08:47:45.376Z,2.50
2023-02-28T08:51:06.708Z,2.60
2023-02-28T08:54:13.325Z,2.70
2023-02-28T08:57:16.202Z,2.70
2023-02-28T09:00:21.719Z,2.80
2023-02-28T09:03:25.394Z,2.60
2023-02-28T09:06:29.867Z,2.60
2023-02-28T09:09:32.825Z,2.60
2023-02-28T09:12:37.285Z,2.60
2023-02-28T09:15:41.654Z,2.70
2023-02-28T09:18:45.196Z,2.80
2023-02-28T09:21:48.147Z,2.80
2023-02-28T09:24:50.989Z,2.90
2023-02-28T09:27:53.929Z,2.90
2023-02-28T09:30:59.891Z,2.90
2023-02-28T09:34:03.696Z,3.00
2023-02-28T09:37:07.039Z,2.90
2023-02-28T09:40:12.275Z,2.80
2023-02-28T09:43:18.567Z,2.90
2023-02-28T09:46:34.493Z,2.90
2023-02-28T09:49:42.914Z,3.00
2023-02-28T09:52:49.189Z,3.00
2023-02-28T09:55:56.243Z,3.00
2023-02-28T09:59:03.755Z,3.10
2023-02-28T10:02:21.628Z,3.20
2023-02-28T10:05:28.147Z,3.00
2023-02-28T10:08:35.142Z,2.90
2023-02-28T10:11:41.519Z,3.10
2023-02-28T10:14:48.756Z,3.20
2023-02-28T10:18:08.497Z,3.30
2023-02-28T10:21:20.944Z,3.40
2023-02-28T10:24:31.062Z,3.50
2023-02-28T10:27:34.906Z,3.60
2023-02-28T10:30:41.380Z,3.60
2023-02-28T10:33:46.397Z,3.60
2023-02-28T10:36:51.407Z,3.60
2023-02-28T10:39:54.707Z,3.70
2023-02-28T10:42:59.039Z,3.90
2023-02-28T10:46:05.634Z,4.10
2023-02-28T10:49:17.300Z,4.20
2023-02-28T10:52:38.879Z,4.50
2023-02-28T10:55:41.868Z,4.60
2023-02-28T10:58:51.323Z,4.70
2023-02-28T11:01:54.563Z,4.90
2023-02-28T11:04:59.365Z,5.00
2023-02-28T11:08:08.824Z,4.80
2023-02-28T11:11:11.696Z,4.60
2023-02-28T11:14:22.559Z,4.70
2023-02-28T11:17:27.817Z,4.70
2023-02-28T11:20:34.677Z,4.70
2023-02-28T11:23:42.301Z,4.90
2023-02-28T11:26:47.404Z,5.00
2023-02-28T11:29:50.257Z,5.00
2023-02-28T11:32:53.344Z,5.20
2023-02-28T11:36:01.317Z,5.30
2023-02-28T11:39:12.976Z,5.50
2023-02-28T11:42:42.701Z,5.60
2023-02-28T11:45:56.546Z,5.70
2023-02-28T11:49:07.280Z,5.80
2023-02-28T11:52:23.042Z,5.80
2023-02-28T11:55:29.552Z,5.90
2023-02-28T11:58:42.898Z,5.90
2023-02-28T12:02:05.177Z,5.90
2023-02-28T12:05:27.593Z,5.90
2023-02-28T12:08:46.234Z,5.80
2023-02-28T12:11:54.794Z,5.90
2023-02-28T12:15:33.673Z,6.00
2023-02-28T12:18:51.626Z,6.20
2023-02-28T12:22:18.144Z,6.30
2023-02-28T12:25:45.881Z,6.60
2023-02-28T12:28:53.021Z,6.70
2023-02-28T12:32:05.938Z,6.80
2023-02-28T12:35:15.211Z,6.90
2023-02-28T12:38:21.432Z,7.20
2023-02-28T12:41:32.004Z,7.50
2023-02-28T12:44:41.368Z,7.90
2023-02-28T12:47:46.424Z,8.10
2023-02-28T12:50:50.804Z,8.50
2023-02-28T12:54:04.772Z,8.70
2023-02-28T12:57:15.538Z,9.10
2023-02-28T13:00:20.972Z,9.20
2023-02-28T13:03:38.524Z,9.60
2023-02-28T13:06:55.803Z,10.00
2023-02-28T13:10:00.749Z,10.30
2023-02-28T13:13:05.903Z,10.30
2023-02-28T13:16:10.935Z,10.60
2023-02-28T13:19:14.523Z,10.80
2023-02-28T13:22:38.710Z,10.90
2023-02-28T13:25:56.487Z,11.10
2023-02-28T13:29:02.986Z,11.30
2023-02-28T13:32:37.569Z,11.30
2023-02-28T13:35:47.206Z,11.50
2023-02-28T13:38:54.331Z,11.60
2023-02-28T13:41:57.201Z,11.70
2023-02-28T13:45:30.992Z,11.90
2023-02-28T13:48:33.929Z,12.00
2023-02-28T13:51:47.832Z,12.10
2023-02-28T13:55:17.193Z,12.00
2023-02-28T13:58:37.676Z,11.80
2023-02-28T14:01:54.821Z,11.60
2023-02-28T14:05:04.041Z,11.40
2023-02-28T14:08:16.227Z,11.20
2023-02-28T14:11:32.446Z,11.00
2023-02-28T14:14:58.297Z,10.90
2023-02-28T14:18:06.556Z,10.80
2023-02-28T14:21:18.405Z,10.70
2023-02-28T14:24:52.252Z,10.60
2023-02-28T14:28:04.536Z,10.50
2023-02-28T14:31:12.563Z,10.50
2023-02-28T14:34:28.198Z,10.30
2023-02-28T14:37:35.119Z,10.10
2023-02-28T14:40:40.323Z,10.00
2023-02-28T14:43:52.005Z,9.90
2023-02-28T14:46:57.393Z,9.90
2023-02-28T14:50:04.668Z,10.00
2023-02-28T14:53:17.499Z,10.00
2023-02-28T14:56:25.313Z,10.10
2023-02-28T14:59:31.755Z,10.10
2023-02-28T15:02:37.181Z,10.20
2023-02-28T15:05:41.384Z,10.20
2023-02-28T15:08:44.267Z,10.40
2023-02-28T15:11:50.644Z,10.50
2023-02-28T15:14:53.527Z,10.60
2023-02-28T15:17:59.561Z,10.70
2023-02-28T15:21:08.215Z,10.80
2023-02-28T15:24:24.514Z,10.90
2023-02-28T15:27:29.401Z,10.90
2023-02-28T15:30:34.206Z,11.00
2023-02-28T15:33:37.123Z,11.00
2023-02-28T15:36:41.349Z,11.00
2023-02-28T15:39:45.993Z,10.90
2023-02-28T15:43:01.870Z,10.90
2023-02-28T15:46:07.306Z,10.90
2023-02-28T15:49:19.532Z,10.80
2023-02-28T15:52:28.282Z,10.70
2023-02-28T15:55:32.362Z,10.60
2023-02-28T15:58:36.966Z,10.50
2023-02-28T16:01:40.760Z,10.30
2023-02-28T16:05:28.856Z,9.90
2023-02-28T16:08:33.061Z,9.80
2023-02-28T16:11:39.651Z,9.70
2023-02-28T16:14:43.554Z,9.50
2023-02-28T16:17:47.590Z,9.40
2023-02-28T16:20:50.450Z,9.30
2023-02-28T16:23:54.656Z,9.00
2023-02-28T16:26:59.059Z,9.00
2023-02-28T16:30:02.856Z,8.90
2023-02-28T16:33:05.713Z,8.90
2023-02-28T16:36:11.528Z,8.70
2023-02-28T16:39:15.784Z,8.60
2023-02-28T16:42:25.852Z,8.50
2023-02-28T16:45:30.707Z,8.30
2023-02-28T16:48:33.619Z,8.30
2023-02-28T16:51:36.899Z,8.20
2023-02-28T16:54:42.056Z,8.10
2023-02-28T16:57:46.561Z,8.10
2023-02-28T17:00:49.962Z,8.00
2023-02-28T17:03:52.875Z,7.90
2023-02-28T17:06:55.856Z,7.80
2023-02-28T17:10:01.549Z,7.70
2023-02-28T17:13:14.505Z,7.70
2023-02-28T17:16:24.501Z,7.60
2023-02-28T17:19:27.389Z,7.50
2023-02-28T17:22:30.293Z,7.40
2023-02-28T17:25:34.554Z,7.30
2023-02-28T17:28:37.482Z,7.30
2023-02-28T17:31:43.259Z,7.20
2023-02-28T17:34:46.984Z,7.10
2023-02-28T17:37:51.050Z,7.00
2023-02-28T17:40:58.128Z,7.00
2023-02-28T17:44:01.041Z,6.90
2023-02-28T17:47:03.958Z,6.90
2023-02-28T17:50:07.601Z,6.90
2023-02-28T17:53:10.519Z,6.80
2023-02-28T17:56:22.470Z,6.80
2023-02-28T17:59:25.362Z,6.80
2023-02-28T18:02:28.533Z,6.80
2023-02-28T18:05:31.970Z,6.80
2023-02-28T18:08:37.018Z,6.80
2023-02-28T18:11:44.780Z,6.80
2023-02-28T18:14:48.733Z,6.80
2023-02-28T18:17:51.973Z,6.80
2023-02-28T18:20:54.869Z,6.80
2023-02-28T18:23:58.864Z,6.80
2023-02-28T18:27:03.102Z,6.80
2023-02-28T18:30:06.795Z,6.70
2023-02-28T18:33:09.748Z,6.70
2023-02-28T18:36:12.617Z,6.70
2023-02-28T18:39:16.344Z,6.70
2023-02-28T18:42:20.557Z,6.70
2023-02-28T18:45:23.419Z,6.70
2023-02-28T18:48:26.327Z,6.70
2023-02-28T18:51:30.524Z,6.70
2023-02-28T18:54:33.455Z,6.60
2023-02-28T18:57:37.693Z,6.60
2023-02-28T19:00:40.570Z,6.60
2023-02-28T19:03:43.470Z,6.60
2023-02-28T19:06:46.411Z,6.60
2023-02-28T19:09:49.272Z,6.70
2023-02-28T19:12:53.474Z,6.60
2023-02-28T19:16:03.548Z,6.60
2023-02-28T19:19:06.675Z,6.50
2023-02-28T19:22:09.563Z,6.60
2023-02-28T19:25:12.647Z,6.50
2023-02-28T19:28:16.904Z,6.50
2023-02-28T19:31:21.546Z,6.50
2023-02-28T19:34:24.444Z,6.50
2023-02-28T19:37:27.324Z,6.50
2023-02-28T19:40:30.196Z,6.40
2023-02-28T19:43:34.632Z,6.40
2023-02-28T19:46:37.525Z,6.40
2023-02-28T19:49:40.438Z,6.40
2023-02-28T19:52:43.435Z,6.20
2023-02-28T19:55:48.652Z,6.30
2023-02-28T19:58:52.974Z,6.30
2023-02-28T20:01:56.374Z,6.40
2023-02-28T20:05:01.302Z,6.40
2023-02-28T20:08:04.461Z,6.40
2023-02-28T20:11:09.028Z,6.40
2023-02-28T20:14:14.472Z,6.20
2023-02-28T20:17:17.364Z,6.10
2023-02-28T20:20:20.458Z,6.20
2023-02-28T20:23:25.741Z,6.00
2023-02-28T20:26:29.035Z,6.00
2023-02-28T20:29:34.851Z,6.10
2023-02-28T20:32:39.507Z,6.10
2023-02-28T20:35:42.551Z,6.10
2023-02-28T20:38:45.469Z,6.10
2023-02-28T20:41:48.317Z,6.10
2023-02-28T20:44:52.546Z,6.10
2023-02-28T20:47:55.459Z,6.00
2023-02-28T20:51:00.016Z,6.10
2023-02-28T20:54:05.355Z,6.00
2023-02-28T20:57:08.448Z,5.90
2023-02-28T21:00:16.283Z,6.00
2023-02-28T21:03:19.186Z,6.10
2023-02-28T21:06:24.313Z,6.10
2023-02-28T21:09:27.640Z,6.00
2023-02-28T21:12:30.561Z,6.00
2023-02-28T21:15:38.346Z,6.00
2023-02-28T21:18:41.700Z,6.10
2023-02-28T21:21:46.697Z,6.00
2023-02-28T21:24:49.592Z,6.00
2023-02-28T21:27:55.569Z,6.10
2023-02-28T21:31:04.279Z,6.10
2023-02-28T21:34:10.398Z,5.80
2023-02-28T21:37:13.337Z,5.80
2023-02-28T21:40:16.480Z,5.80
2023-02-28T21:43:19.352Z,5.90
2023-02-28T21:46:25.531Z,5.90
2023-02-28T21:49:28.452Z,5.80
2023-02-28T21:52:31.310Z,5.80
2023-02-28T21:55:35.975Z,5.80
2023-02-28T21:58:38.864Z,5.70
2023-02-28T22:01:45.305Z,5.80
2023-02-28T22:04:48.340Z,5.80
2023-02-28T22:07:51.289Z,5.70
2023-02-28T22:10:54.415Z,5.80
2023-02-28T22:13:59.000Z,5.90
2023-02-28T22:17:03.332Z,5.90
2023-02-28T22:20:07.268Z,5.70
2023-02-28T22:23:10.117Z,5.70
2023-02-28T22:26:15.047Z,5.80
2023-02-28T22:29:18.270Z,5.80
2023-02-28T22:32:22.540Z,5.80
2023-02-28T22:35:25.480Z,5.60
2023-02-28T22:38:28.337Z,5.70
2023-02-28T22:41:31.838Z,5.80
2023-02-28T22:44:34.702Z,5.80
2023-02-28T22:47:39.044Z,5.80
2023-02-28T22:50:41.949Z,5.90
2023-02-28T22:53:46.776Z,5.80
2023-02-28T22:56:49.665Z,5.70
2023-02-28T22:59:52.520Z,5.80
2023-02-28T23:02:56.833Z,5.70
2023-02-28T23:05:59.797Z,5.80
2023-02-28T23:09:06.417Z,5.80
2023-02-28T23:12:09.338Z,5.80
2023-02-28T23:15:12.976Z,5.60
2023-02-28T23:18:17.270Z,5.70
2023-02-28T23:21:20.188Z,5.70
2023-02-28T23:24:24.572Z,5.80
2023-02-28T23:27:27.697Z,5.80
2023-02-28T23:30:30.704Z,5.70
2023-02-28T23:33:35.132Z,5.70
2023-02-28T23:36:39.049Z,5.80
2023-02-28T23:39:41.985Z,5.80
2023-02-28T23:42:45.283Z,5.70
2023-02-28T23:45:56.272Z,5.60
2023-02-28T23:49:01.128Z,5.70
2023-02-28T23:52:04.039Z,5.70
2023-02-28T23:55:08.010Z,5.70
2023-02-28T23:58:10.876Z,5.60
